»·PEaware :: SKY716 KHLN-KLVM

SKY716 :: KHLN-KLVM

FLIGHT INFORMATION

Flight Status: Arrived
Operator:
Sky High Charters
More flights by this operator :: More flights under this callsign
Pilot: Martin A. (6413)
Aircraft: PIPER PA-31T-620 CHEYENNE 2
(PAY2)
More flights by this aircraft type
Origin: KHLN Helena Regl
United States
Destination: KLVM Mission
United States
More flights between these airports :: More routes between these airports
Route: +HLN4 HLN V2 LVM
File this flight plan on PilotEdge
Remarks: SCENARIO 7
Altitude:
(Current/Filed)
11,000ft
Speed:
(Current/Filed)
215kts
Departed: 27-Sep-19 11:35 AM
Arrived: 27-Sep-19 12:17 PM
Distance/Time
Traveled:
84nm/0:42
Distance/Time
To Go:
Arrived

Flight Plot

Page will automatically refresh every two minutes.

Flight plan parsing failed; only flown route is shown


Map Options




Map Legend


Flown Route
Filed Route
Departure Airport
Arrival Airport
Navaid (VOR, NDB)
Fix

Horizontal Profiles

Position Reports

Time Latitude Longitude Heading Altitude Ground
Speed
27-Sep-19 10:59 46.602871 -111.994937 269 3880ft 0kts
27-Sep-19 11:00 46.602871 -111.994937 269 3880ft 0kts
27-Sep-19 11:01 46.602871 -111.994937 268 3880ft 0kts
27-Sep-19 11:02 46.602871 -111.994937 269 3880ft 0kts
27-Sep-19 11:03 46.602871 -111.994937 269 3880ft 0kts
27-Sep-19 11:04 46.602871 -111.994937 269 3880ft 0kts
27-Sep-19 11:05 46.602871 -111.994937 269 3880ft 0kts
27-Sep-19 11:06 46.602871 -111.994937 269 3880ft 0kts
27-Sep-19 11:07 46.602871 -111.994937 269 3880ft 0kts
27-Sep-19 11:08 46.602871 -111.994937 269 3880ft 0kts
27-Sep-19 11:09 46.602871 -111.994937 269 3880ft 0kts
27-Sep-19 11:10 46.602871 -111.994937 269 3880ft 0kts
27-Sep-19 11:11 46.602871 -111.994937 269 3880ft 0kts
27-Sep-19 11:12 46.602871 -111.994937 269 3880ft 0kts
27-Sep-19 11:13 46.602871 -111.994937 269 3880ft 0kts
27-Sep-19 11:14 46.602871 -111.994937 269 3880ft 0kts
27-Sep-19 11:15 46.602871 -111.994937 269 3880ft 0kts
27-Sep-19 11:16 46.602871 -111.994937 269 3880ft 0kts
27-Sep-19 11:17 46.602871 -111.994937 269 3880ft 0kts
27-Sep-19 11:18 46.602871 -111.994937 269 3880ft 0kts
27-Sep-19 11:19 46.602871 -111.994937 269 3880ft 0kts
27-Sep-19 11:20 46.602871 -111.994937 269 3880ft 0kts
27-Sep-19 11:21 46.602871 -111.994937 269 3880ft 0kts
27-Sep-19 11:22 46.602871 -111.994937 269 3880ft 0kts
27-Sep-19 11:23 46.602871 -111.994937 269 3880ft 0kts
27-Sep-19 11:24 46.602871 -111.994937 269 3880ft 0kts
27-Sep-19 11:25 46.602871 -111.994937 269 3880ft 0kts
27-Sep-19 11:26 46.603147 -111.994935 27 3879ft 10kts
27-Sep-19 11:27 46.603312 -111.990874 87 3869ft 9kts
27-Sep-19 11:28 46.603473 -111.985533 87 3857ft 15kts
27-Sep-19 11:29 46.603651 -111.979332 90 3856ft 14kts
27-Sep-19 11:30 46.603178 -111.973363 98 3853ft 16kts
27-Sep-19 11:31 46.602451 -111.967313 104 3847ft 13kts
27-Sep-19 11:32 46.602068 -111.963415 50 3844ft 5kts
27-Sep-19 11:33 46.603053 -111.963165 278 3840ft 0kts
27-Sep-19 11:34 46.608339 -112.002799 279 5027ft 160kts
27-Sep-19 11:35 46.652155 -112.016266 18 6039ft 184kts
27-Sep-19 11:36 46.698996 -111.993605 18 7259ft 174kts
27-Sep-19 11:37 46.744039 -111.977985 349 8360ft 163kts
27-Sep-19 11:38 46.753840 -112.019976 198 8922ft 174kts
27-Sep-19 11:39 46.710947 -111.982737 142 9571ft 197kts
27-Sep-19 11:40 46.658090 -111.962129 175 10236ft 206kts
27-Sep-19 11:41 46.599442 -111.950356 174 10689ft 226kts
27-Sep-19 11:42 46.557048 -111.889805 91 10694ft 249kts
27-Sep-19 11:43 46.543315 -111.790341 116 10686ft 252kts
27-Sep-19 11:44 46.509499 -111.699596 120 10686ft 252kts
27-Sep-19 11:45 46.474534 -111.609253 120 10686ft 253kts
27-Sep-19 11:46 46.439861 -111.519777 120 10687ft 253kts
27-Sep-19 11:47 46.404508 -111.428861 120 10687ft 253kts
27-Sep-19 11:48 46.369474 -111.339061 121 10685ft 253kts
27-Sep-19 11:49 46.334456 -111.249588 121 10685ft 253kts
27-Sep-19 11:50 46.299434 -111.160414 121 10685ft 253kts
27-Sep-19 11:51 46.261329 -111.074435 139 10685ft 250kts
27-Sep-19 11:52 46.207109 -111.011182 144 10685ft 250kts
27-Sep-19 11:53 46.152252 -110.949112 144 10686ft 250kts
27-Sep-19 11:54 46.097496 -110.886918 144 10686ft 250kts
27-Sep-19 11:55 46.042580 -110.824630 144 10686ft 250kts
27-Sep-19 11:56 45.987476 -110.762282 144 10659ft 251kts
27-Sep-19 11:57 45.932637 -110.700385 144 10659ft 250kts
27-Sep-19 11:58 45.877634 -110.638472 144 10659ft 250kts
27-Sep-19 11:59 45.822678 -110.576774 144 10660ft 250kts
27-Sep-19 12:00 45.767617 -110.515114 144 10660ft 250kts
27-Sep-19 12:01 45.720326 -110.442724 107 10644ft 256kts
27-Sep-19 12:02 45.735220 -110.347959 63 10033ft 229kts
27-Sep-19 12:03 45.762528 -110.270189 61 9209ft 210kts
27-Sep-19 12:04 45.788138 -110.196897 61 8400ft 202kts
27-Sep-19 12:05 45.805569 -110.121536 82 7672ft 198kts
27-Sep-19 12:06 45.810837 -110.044072 83 7659ft 196kts
27-Sep-19 12:07 45.825485 -109.972073 23 7662ft 190kts
27-Sep-19 12:08 45.854060 -110.010521 249 7662ft 180kts
27-Sep-19 12:09 45.830813 -110.076682 244 7663ft 183kts
27-Sep-19 12:10 45.807173 -110.142601 245 7661ft 184kts
27-Sep-19 12:11 45.784045 -110.208640 245 7310ft 188kts
27-Sep-19 12:12 45.760740 -110.275133 246 6503ft 185kts
27-Sep-19 12:13 45.739638 -110.334997 245 5644ft 148kts
27-Sep-19 12:14 45.721426 -110.386377 244 5238ft 135kts
27-Sep-19 12:15 45.707046 -110.426479 243 4832ft 109kts
27-Sep-19 12:16 45.695318 -110.451085 234 4649ft 16kts
27-Sep-19 12:17 45.696690 -110.452975 303 4644ft 4kts
27-Sep-19 12:18 45.696767 -110.453396 323 4643ft 0kts
27-Sep-19 12:19 45.696767 -110.453396 323 4643ft 0kts
27-Sep-19 12:20 45.696767 -110.453396 323 4643ft 0kts
27-Sep-19 12:21 45.696767 -110.453396 323 4643ft 0kts
27-Sep-19 12:22 45.696767 -110.453396 323 4643ft 0kts
27-Sep-19 12:23 45.696767 -110.453396 323 4643ft 0kts
27-Sep-19 12:25 45.696767 -110.453396 323 4643ft 0kts

Navigation Log

Ident Type
Flight plan parsing failed, navigation log unavailable